createdAt,value
2023-03-31T00:01:25.869Z,100175.25
2023-03-31T00:03:52.604Z,100175.28
2023-03-31T00:06:19.483Z,100171.75
2023-03-31T00:08:47.258Z,100173.63
2023-03-31T00:11:14.144Z,100163.88
2023-03-31T00:13:40.796Z,100163.69
2023-03-31T00:16:09.907Z,100158.34
2023-03-31T00:18:47.489Z,100148.72
2023-03-31T00:21:31.919Z,100139.66
2023-03-31T00:24:06.925Z,100136.25
2023-03-31T00:26:34.731Z,100139.78
2023-03-31T00:29:01.848Z,100124.69
2023-03-31T00:31:28.739Z,100122.06
2023-03-31T00:33:58.639Z,100118.44
2023-03-31T00:36:31.777Z,100107.63
2023-03-31T00:39:05.945Z,100106.03
2023-03-31T00:41:36.477Z,100097.03
2023-03-31T00:44:10.203Z,100098.84
2023-03-31T00:46:48.331Z,100102.38
2023-03-31T00:49:21.371Z,100087.25
2023-03-31T00:51:52.358Z,100078.22
2023-03-31T00:54:19.690Z,100074.84
2023-03-31T00:56:48.432Z,100072.13
2023-03-31T00:59:15.510Z,100068.63
2023-03-31T01:01:45.727Z,100072.03
2023-03-31T01:04:13.295Z,100066.72
2023-03-31T01:06:50.337Z,100059.63
2023-03-31T01:09:19.591Z,100056.94
2023-03-31T01:11:47.479Z,100049.91
2023-03-31T01:14:14.384Z,100044.53
2023-03-31T01:16:41.734Z,100042.56
2023-03-31T01:19:22.139Z,100032.81
2023-03-31T01:22:20.360Z,100039.19
2023-03-31T01:25:08.554Z,100034.72
2023-03-31T01:28:01.311Z,100027.59
2023-03-31T01:31:03.714Z,100033.00
2023-03-31T01:33:48.741Z,100015.09
2023-03-31T01:36:36.336Z,100006.22
2023-03-31T01:39:11.726Z,99999.00
2023-03-31T01:42:02.346Z,100000.06
2023-03-31T01:45:06.008Z,99996.28
2023-03-31T01:47:53.946Z,99994.72
2023-03-31T01:50:56.391Z,99985.75
2023-03-31T01:53:25.727Z,99984.84
2023-03-31T01:56:01.372Z,99978.69
2023-03-31T01:58:35.551Z,99976.13
2023-03-31T02:01:34.406Z,99976.97
2023-03-31T02:04:35.622Z,99975.31
2023-03-31T02:07:12.192Z,99966.28
2023-03-31T02:09:42.624Z,99967.31
2023-03-31T02:12:11.848Z,99967.19
2023-03-31T02:14:41.221Z,99965.53
2023-03-31T02:17:18.343Z,99955.69
2023-03-31T02:19:53.752Z,99955.84
2023-03-31T02:22:22.016Z,99952.19
2023-03-31T02:24:49.302Z,99947.59
2023-03-31T02:27:25.552Z,99946.63
2023-03-31T02:29:52.954Z,99938.81
2023-03-31T02:32:39.514Z,99939.72
2023-03-31T02:35:08.527Z,99922.78
2023-03-31T02:37:35.178Z,99926.38
2023-03-31T02:40:06.401Z,99924.63
2023-03-31T02:42:33.021Z,99926.47
2023-03-31T02:45:07.050Z,99903.19
2023-03-31T02:47:34.144Z,99908.56
2023-03-31T02:50:07.118Z,99904.84
2023-03-31T02:52:40.406Z,99903.25
2023-03-31T02:55:44.645Z,99900.63
2023-03-31T02:58:56.314Z,99892.41
2023-03-31T03:01:58.112Z,99896.06
2023-03-31T03:04:37.868Z,99885.44
2023-03-31T03:07:28.801Z,99873.09
2023-03-31T03:10:10.415Z,99873.97
2023-03-31T03:12:39.613Z,99867.59
2023-03-31T03:15:18.301Z,99860.59
2023-03-31T03:17:45.894Z,99853.41
2023-03-31T03:20:17.008Z,99846.50
2023-03-31T03:22:43.607Z,99847.25
2023-03-31T03:25:14.215Z,99838.34
2023-03-31T03:27:40.836Z,99828.53
2023-03-31T03:30:11.673Z,99829.41
2023-03-31T03:32:38.323Z,99830.31
2023-03-31T03:35:06.128Z,99818.66
2023-03-31T03:37:33.157Z,99822.31
2023-03-31T03:39:59.750Z,99813.53
2023-03-31T03:42:26.328Z,99808.00
2023-03-31T03:44:52.945Z,99792.22
2023-03-31T03:47:19.525Z,99789.56
2023-03-31T03:49:46.195Z,99785.97
2023-03-31T03:52:12.759Z,99780.53
2023-03-31T03:54:39.303Z,99775.28
2023-03-31T03:57:07.399Z,99777.03
2023-03-31T03:59:34.086Z,99774.38
2023-03-31T04:02:00.716Z,99770.81
2023-03-31T04:04:28.698Z,99773.53
2023-03-31T04:06:55.517Z,99761.09
2023-03-31T04:09:22.079Z,99752.06
2023-03-31T04:11:48.647Z,99756.59
2023-03-31T04:14:32.328Z,99745.91
2023-03-31T04:16:58.913Z,99737.88
2023-03-31T04:19:27.999Z,99733.34
2023-03-31T04:22:03.017Z,99725.44
2023-03-31T04:24:33.182Z,99723.63
2023-03-31T04:27:01.067Z,99722.72
2023-03-31T04:29:27.759Z,99713.84
2023-03-31T04:31:58.782Z,99712.94
2023-03-31T04:34:35.600Z,99703.25
2023-03-31T04:37:02.919Z,99704.13
2023-03-31T04:39:33.129Z,99697.91
2023-03-31T04:42:00.681Z,99687.22
2023-03-31T04:44:27.781Z,99688.19
2023-03-31T04:46:54.820Z,99675.63
2023-03-31T04:49:21.554Z,99668.28
2023-03-31T04:51:48.185Z,99667.63
2023-03-31T04:54:14.816Z,99666.84
2023-03-31T04:56:47.090Z,99657.97
2023-03-31T04:59:13.682Z,99657.00
2023-03-31T05:01:45.077Z,99657.81
2023-03-31T05:04:11.884Z,99650.94
2023-03-31T05:06:38.491Z,99656.22
2023-03-31T05:09:09.951Z,99643.78
2023-03-31T05:11:36.726Z,99643.72
2023-03-31T05:14:05.955Z,99639.22
2023-03-31T05:16:32.599Z,99636.78
2023-03-31T05:18:59.301Z,99633.22
2023-03-31T05:21:31.370Z,99637.53
2023-03-31T05:23:58.174Z,99628.59
2023-03-31T05:26:25.436Z,99622.34
2023-03-31T05:28:55.220Z,99618.94
2023-03-31T05:31:22.281Z,99622.34
2023-03-31T05:33:51.937Z,99617.09
2023-03-31T05:36:21.519Z,99606.19
2023-03-31T05:38:48.291Z,99601.06
2023-03-31T05:41:17.152Z,99591.28
2023-03-31T05:43:43.824Z,99591.28
2023-03-31T05:46:10.927Z,99593.03
2023-03-31T05:48:40.373Z,99585.16
2023-03-31T05:51:06.960Z,99584.25
2023-03-31T05:53:34.184Z,99583.03
2023-03-31T05:56:03.277Z,99580.53
2023-03-31T05:58:30.662Z,99570.69
2023-03-31T06:01:06.408Z,99564.47
2023-03-31T06:03:34.672Z,99566.41
2023-03-31T06:06:02.152Z,99563.59
2023-03-31T06:08:32.245Z,99564.59
2023-03-31T06:10:58.778Z,99551.16
2023-03-31T06:13:25.455Z,99554.69
2023-03-31T06:15:59.552Z,99540.47
2023-03-31T06:18:30.268Z,99538.66
2023-03-31T06:20:57.617Z,99542.25
2023-03-31T06:23:32.379Z,99521.84
2023-03-31T06:26:08.146Z,99527.97
2023-03-31T06:28:35.781Z,99520.88
2023-03-31T06:31:07.512Z,99520.09
2023-03-31T06:33:34.963Z,99513.97
2023-03-31T06:36:04.266Z,99511.28
2023-03-31T06:38:31.423Z,99501.25
2023-03-31T06:40:57.993Z,99503.97
2023-03-31T06:43:25.682Z,99497.84
2023-03-31T06:45:56.131Z,99499.41
2023-03-31T06:48:23.917Z,99495.00
2023-03-31T06:50:50.578Z,99485.13
2023-03-31T06:53:17.261Z,99490.59
2023-03-31T06:55:43.822Z,99490.03
2023-03-31T06:58:11.630Z,99479.06
2023-03-31T07:00:38.297Z,99473.72
2023-03-31T07:03:09.113Z,99477.88
2023-03-31T07:05:39.163Z,99469.72
2023-03-31T07:08:06.177Z,99464.25
2023-03-31T07:10:32.932Z,99468.53
2023-03-31T07:12:59.506Z,99465.94
2023-03-31T07:15:27.717Z,99462.16
2023-03-31T07:18:02.589Z,99459.34
2023-03-31T07:20:30.584Z,99463.75
2023-03-31T07:22:57.513Z,99455.97
2023-03-31T07:25:27.235Z,99456.88
2023-03-31T07:27:56.383Z,99447.94
2023-03-31T07:30:24.573Z,99452.16
2023-03-31T07:32:59.393Z,99447.50
2023-03-31T07:35:26.327Z,99442.28
2023-03-31T07:37:52.966Z,99440.41
2023-03-31T07:40:23.175Z,99442.16
2023-03-31T07:42:52.236Z,99447.50
2023-03-31T07:45:20.769Z,99442.06
2023-03-31T07:47:48.331Z,99434.06
2023-03-31T07:51:05.490Z,99430.41
2023-03-31T07:53:32.455Z,99425.91
2023-03-31T07:55:59.007Z,99417.88
2023-03-31T07:58:25.600Z,99419.56
2023-03-31T08:00:52.168Z,99417.81
2023-03-31T08:03:18.830Z,99409.66
2023-03-31T08:05:45.429Z,99400.84
2023-03-31T08:08:11.973Z,99408.72
2023-03-31T08:10:38.538Z,99400.50
2023-03-31T08:13:05.877Z,99402.25
2023-03-31T08:15:32.421Z,99404.00
2023-03-31T08:17:59.061Z,99396.66
2023-03-31T08:20:25.782Z,99390.31
2023-03-31T08:22:52.365Z,99393.72
2023-03-31T08:25:20.707Z,99385.69
2023-03-31T08:27:50.983Z,99381.16
2023-03-31T08:30:18.840Z,99376.72
2023-03-31T08:32:45.485Z,99375.59
2023-03-31T08:35:12.229Z,99378.13
2023-03-31T08:37:38.900Z,99365.91
2023-03-31T08:40:09.543Z,99363.00
2023-03-31T08:42:41.906Z,99358.47
2023-03-31T08:45:43.905Z,99356.63
2023-03-31T08:48:48.945Z,99357.41
2023-03-31T08:51:23.036Z,99353.22
2023-03-31T08:54:05.738Z,99349.38
2023-03-31T08:56:37.878Z,99356.63
2023-03-31T08:59:05.248Z,99345.91
2023-03-31T09:01:56.852Z,99343.09
2023-03-31T09:04:32.626Z,99343.19
2023-03-31T09:07:27.170Z,99338.56
2023-03-31T09:10:12.927Z,99340.31
2023-03-31T09:13:02.351Z,99340.31
2023-03-31T09:15:40.886Z,99330.56
2023-03-31T09:18:16.197Z,99327.94
2023-03-31T09:20:47.925Z,99329.72
2023-03-31T09:23:33.887Z,99319.03
2023-03-31T09:26:01.659Z,99319.03
2023-03-31T09:28:37.701Z,99322.44
2023-03-31T09:31:11.736Z,99315.44
2023-03-31T09:33:43.199Z,99312.69
2023-03-31T09:36:15.990Z,99311.81
2023-03-31T09:38:43.711Z,99317.06
2023-03-31T09:41:11.758Z,99314.44
2023-03-31T09:43:41.355Z,99304.72
2023-03-31T09:46:18.660Z,99304.56
2023-03-31T09:48:54.073Z,99308.97
2023-03-31T09:51:27.509Z,99297.13
2023-03-31T09:53:58.698Z,99306.13
2023-03-31T09:56:41.962Z,99295.47
2023-03-31T09:59:35.102Z,99290.06
2023-03-31T10:02:21.771Z,99291.78
2023-03-31T10:04:48.434Z,99291.69
2023-03-31T10:07:21.564Z,99294.47
2023-03-31T10:09:48.137Z,99295.28
2023-03-31T10:12:22.913Z,99291.44
2023-03-31T10:14:51.507Z,99294.28
2023-03-31T10:17:21.026Z,99282.72
2023-03-31T10:19:55.533Z,99286.09
2023-03-31T10:22:21.994Z,99289.59
2023-03-31T10:24:50.421Z,99278.97
2023-03-31T10:27:28.418Z,99293.19
2023-03-31T10:29:57.042Z,99286.09
2023-03-31T10:32:28.961Z,99293.19
2023-03-31T10:34:57.017Z,99285.16
2023-03-31T10:37:26.211Z,99278.88
2023-03-31T10:40:14.703Z,99278.88
2023-03-31T10:42:57.738Z,99274.38
2023-03-31T10:45:37.053Z,99282.47
2023-03-31T10:48:04.536Z,99277.03
2023-03-31T10:50:34.266Z,99277.03
2023-03-31T10:53:03.190Z,99281.41
2023-03-31T10:55:36.770Z,99278.69
2023-03-31T10:58:30.988Z,99269.78
2023-03-31T11:01:28.609Z,99278.88
2023-03-31T11:04:08.909Z,99277.03
2023-03-31T11:06:57.546Z,99278.72
2023-03-31T11:09:45.850Z,99277.03
2023-03-31T11:12:44.540Z,99279.69
2023-03-31T11:15:15.711Z,99275.13
2023-03-31T11:18:01.193Z,99272.47
2023-03-31T11:20:36.968Z,99267.91
2023-03-31T11:23:13.527Z,99267.00
2023-03-31T11:26:08.213Z,99267.78
2023-03-31T11:28:49.639Z,99267.41
2023-03-31T11:31:28.627Z,99267.41
2023-03-31T11:34:13.640Z,99267.56
2023-03-31T11:37:05.045Z,99267.41
2023-03-31T11:39:51.176Z,99263.81
2023-03-31T11:42:26.461Z,99262.06
2023-03-31T11:44:57.031Z,99257.72
2023-03-31T11:47:26.780Z,99254.03
2023-03-31T11:49:56.189Z,99254.03
2023-03-31T11:52:29.416Z,99254.84
2023-03-31T11:55:06.334Z,99246.00
2023-03-31T11:57:36.046Z,99243.25
2023-03-31T12:00:18.395Z,99236.09
2023-03-31T12:03:03.706Z,99240.66
2023-03-31T12:05:32.013Z,99233.53
2023-03-31T12:08:06.803Z,99239.78
2023-03-31T12:10:36.904Z,99237.97
2023-03-31T12:13:34.280Z,99233.63
2023-03-31T12:16:06.052Z,99225.59
2023-03-31T12:18:38.184Z,99223.97
2023-03-31T12:21:06.370Z,99223.09
2023-03-31T12:23:44.233Z,99229.34
2023-03-31T12:26:49.314Z,99224.03
2023-03-31T12:29:29.383Z,99233.50
2023-03-31T12:31:57.885Z,99220.13
2023-03-31T12:34:26.906Z,99224.47
2023-03-31T12:36:55.381Z,99228.06
2023-03-31T12:39:42.882Z,99224.47
2023-03-31T12:42:20.110Z,99227.94
2023-03-31T12:45:17.711Z,99224.47
2023-03-31T12:48:11.972Z,99220.78
2023-03-31T12:51:03.698Z,99214.16
2023-03-31T12:53:45.398Z,99220.34
2023-03-31T12:56:11.969Z,99221.19
2023-03-31T12:58:50.061Z,99218.44
2023-03-31T13:01:23.302Z,99211.38
2023-03-31T13:03:53.751Z,99213.09
2023-03-31T13:06:26.260Z,99211.22
2023-03-31T13:08:57.442Z,99207.34
2023-03-31T13:11:36.497Z,99198.25
2023-03-31T13:14:13.286Z,99187.44
2023-03-31T13:16:40.010Z,99185.59
2023-03-31T13:19:06.641Z,99181.81
2023-03-31T13:21:52.991Z,99178.84
2023-03-31T13:24:22.493Z,99170.53
2023-03-31T13:26:49.892Z,99178.53
2023-03-31T13:29:19.438Z,99175.78
2023-03-31T13:32:18.200Z,99172.28
2023-03-31T13:35:10.779Z,99168.78
2023-03-31T13:37:47.475Z,99164.16
2023-03-31T13:40:43.728Z,99159.16
2023-03-31T13:43:32.143Z,99158.44
2023-03-31T13:46:26.421Z,99170.81
2023-03-31T13:49:12.237Z,99168.22
2023-03-31T13:51:59.755Z,99172.56
2023-03-31T13:54:45.411Z,99161.19
2023-03-31T13:57:49.051Z,99165.59
2023-03-31T14:00:33.015Z,99176.31
2023-03-31T14:03:18.136Z,99167.31
2023-03-31T14:06:04.377Z,99172.69
2023-03-31T14:08:52.929Z,99179.94
2023-03-31T14:11:28.368Z,99176.31
2023-03-31T14:14:12.725Z,99179.66
2023-03-31T14:16:41.802Z,99178.91
2023-03-31T14:19:48.016Z,99173.41
2023-03-31T14:22:37.315Z,99169.75
2023-03-31T14:25:34.495Z,99165.16
2023-03-31T14:28:36.189Z,99149.09
2023-03-31T14:31:25.731Z,99151.66
2023-03-31T14:34:13.634Z,99150.56
2023-03-31T14:36:57.822Z,99152.97
2023-03-31T14:39:28.003Z,99144.78
2023-03-31T14:41:56.995Z,99144.63
2023-03-31T14:44:25.804Z,99144.50
2023-03-31T14:46:52.376Z,99141.81
2023-03-31T14:49:22.197Z,99146.25
2023-03-31T14:51:48.865Z,99142.69
2023-03-31T14:54:19.818Z,99144.50
2023-03-31T14:56:58.360Z,99142.75
2023-03-31T14:59:31.296Z,99148.13
2023-03-31T15:01:59.378Z,99141.81
2023-03-31T15:04:39.579Z,99141.00
2023-03-31T15:07:09.099Z,99135.66
2023-03-31T15:09:36.421Z,99133.91
2023-03-31T15:12:07.952Z,99135.72
2023-03-31T15:14:43.681Z,99126.84
2023-03-31T15:17:29.807Z,99124.28
2023-03-31T15:19:59.029Z,99126.13
2023-03-31T15:22:27.738Z,99121.53
2023-03-31T15:24:54.619Z,99124.16
2023-03-31T15:27:36.883Z,99127.69
2023-03-31T15:30:09.277Z,99125.00
2023-03-31T15:32:37.210Z,99126.97
2023-03-31T15:35:18.751Z,99123.34
2023-03-31T15:37:48.148Z,99119.75
2023-03-31T15:40:26.405Z,99115.44
2023-03-31T15:43:20.279Z,99118.84
2023-03-31T15:45:53.957Z,99118.19
2023-03-31T15:48:52.959Z,99111.00
2023-03-31T15:51:33.039Z,99119.06
2023-03-31T15:53:59.622Z,99113.78
2023-03-31T15:56:34.796Z,99112.75
2023-03-31T15:59:05.235Z,99114.66
2023-03-31T16:01:35.470Z,99109.31
2023-03-31T16:04:07.330Z,99116.53
2023-03-31T16:06:56.540Z,99112.91
2023-03-31T16:09:31.278Z,99109.31
2023-03-31T16:12:01.923Z,99109.31
2023-03-31T16:14:35.536Z,99107.41
2023-03-31T16:17:04.913Z,99106.63
2023-03-31T16:19:39.212Z,99112.91
2023-03-31T16:22:06.268Z,99111.97
2023-03-31T16:24:34.406Z,99112.91
2023-03-31T16:27:06.325Z,99114.50
2023-03-31T16:29:34.480Z,99111.00
2023-03-31T16:32:19.000Z,99114.50
2023-03-31T16:34:53.462Z,99110.03
2023-03-31T16:37:20.037Z,99107.41
2023-03-31T16:39:46.630Z,99104.81
2023-03-31T16:42:13.162Z,99110.25
2023-03-31T16:44:42.736Z,99104.06
2023-03-31T16:47:10.531Z,99107.56
2023-03-31T16:49:39.864Z,99105.94
2023-03-31T16:52:06.664Z,99109.59
2023-03-31T16:54:33.219Z,99111.47
2023-03-31T16:57:00.242Z,99104.34
2023-03-31T16:59:27.186Z,99101.41
2023-03-31T17:01:53.861Z,99098.88
2023-03-31T17:04:20.903Z,99105.94
2023-03-31T17:06:47.528Z,99106.09
2023-03-31T17:09:14.148Z,99103.06
2023-03-31T17:11:41.150Z,99098.72
2023-03-31T17:14:07.802Z,99111.31
2023-03-31T17:16:47.435Z,99113.22
2023-03-31T17:19:14.983Z,99109.72
2023-03-31T17:21:41.954Z,99108.78
2023-03-31T17:24:09.781Z,99113.34
2023-03-31T17:26:37.695Z,99102.63
2023-03-31T17:29:04.259Z,99105.16
2023-03-31T17:31:31.916Z,99099.84
2023-03-31T17:33:58.714Z,99097.13
2023-03-31T17:36:25.440Z,99096.25
2023-03-31T17:38:51.991Z,99096.13
2023-03-31T17:41:18.621Z,99106.09
2023-03-31T17:43:46.119Z,99108.88
2023-03-31T17:46:13.463Z,99100.88
2023-03-31T17:48:41.164Z,99104.34
2023-03-31T17:51:10.024Z,99105.16
2023-03-31T17:53:36.898Z,99100.75
2023-03-31T17:56:04.691Z,99109.72
2023-03-31T17:58:32.308Z,99106.09
2023-03-31T18:00:59.203Z,99108.13
2023-03-31T18:03:28.762Z,99111.47
2023-03-31T18:05:55.639Z,99106.22
2023-03-31T18:08:22.213Z,99106.09
2023-03-31T18:10:49.221Z,99110.66
2023-03-31T18:13:16.640Z,99117.09
2023-03-31T18:15:49.122Z,99106.22
2023-03-31T18:18:15.815Z,99115.34
2023-03-31T18:20:42.436Z,99128.56
2023-03-31T18:23:08.981Z,99126.06
2023-03-31T18:25:36.055Z,99120.84
2023-03-31T18:28:02.913Z,99129.69
2023-03-31T18:30:29.574Z,99136.78
2023-03-31T18:32:56.505Z,99130.63
2023-03-31T18:35:23.445Z,99126.06
2023-03-31T18:37:50.093Z,99132.56
2023-03-31T18:40:17.368Z,99136.13
2023-03-31T18:42:43.957Z,99125.41
2023-03-31T18:45:10.640Z,99133.47
2023-03-31T18:47:37.264Z,99128.97
2023-03-31T18:50:04.752Z,99133.47
2023-03-31T18:52:31.705Z,99133.47
2023-03-31T18:54:58.380Z,99135.97
2023-03-31T18:57:25.242Z,99136.91
2023-03-31T18:59:51.948Z,99136.91
2023-03-31T19:02:18.572Z,99133.59
2023-03-31T19:04:45.928Z,99144.16
2023-03-31T19:07:13.527Z,99134.50
2023-03-31T19:09:40.080Z,99145.44
2023-03-31T19:12:06.798Z,99144.28
2023-03-31T19:14:36.169Z,99134.50
2023-03-31T19:17:04.105Z,99133.72
2023-03-31T19:19:30.988Z,99135.44
2023-03-31T19:21:58.438Z,99139.09
2023-03-31T19:24:25.051Z,99145.31
2023-03-31T19:26:51.613Z,99139.09
2023-03-31T19:29:18.221Z,99142.63
2023-03-31T19:31:47.397Z,99147.16
2023-03-31T19:34:16.474Z,99138.28
2023-03-31T19:36:43.662Z,99137.34
2023-03-31T19:39:11.731Z,99135.44
2023-03-31T19:41:38.339Z,99133.84
2023-03-31T19:44:05.367Z,99144.44
2023-03-31T19:46:32.066Z,99142.72
2023-03-31T19:48:58.737Z,99148.31
2023-03-31T19:51:25.775Z,99139.34
2023-03-31T19:53:53.580Z,99137.47
2023-03-31T19:56:21.441Z,99135.84
2023-03-31T19:58:50.145Z,99140.31
2023-03-31T20:01:25.993Z,99140.31
2023-03-31T20:03:53.604Z,99134.09
2023-03-31T20:06:25.125Z,99142.00
2023-03-31T20:08:56.668Z,99136.66
2023-03-31T20:11:23.593Z,99132.34
2023-03-31T20:13:50.318Z,99129.75
2023-03-31T20:16:19.188Z,99136.84
2023-03-31T20:18:51.406Z,99142.22
2023-03-31T20:21:19.565Z,99138.81
2023-03-31T20:23:46.632Z,99135.97
2023-03-31T20:26:15.141Z,99129.03
2023-03-31T20:28:42.009Z,99127.41
2023-03-31T20:31:20.224Z,99133.63
2023-03-31T20:33:47.374Z,99132.75
2023-03-31T20:36:16.569Z,99132.75
2023-03-31T20:38:45.011Z,99130.06
2023-03-31T20:41:12.459Z,99123.94
2023-03-31T20:43:40.040Z,99123.00
2023-03-31T20:46:08.686Z,99132.75
2023-03-31T20:48:36.401Z,99131.16
2023-03-31T20:51:03.989Z,99135.31
2023-03-31T20:53:30.565Z,99125.81
2023-03-31T20:55:57.300Z,99127.66
2023-03-31T20:58:23.884Z,99132.00
2023-03-31T21:00:57.137Z,99131.16
2023-03-31T21:03:23.761Z,99135.03
2023-03-31T21:05:50.588Z,99127.94
2023-03-31T21:08:17.135Z,99128.88
2023-03-31T21:10:45.080Z,99149.34
2023-03-31T21:13:13.489Z,99145.75
2023-03-31T21:15:40.375Z,99135.97
2023-03-31T21:18:07.595Z,99142.25
2023-03-31T21:20:34.586Z,99145.91
2023-03-31T21:23:01.302Z,99146.88
2023-03-31T21:25:27.973Z,99135.91
2023-03-31T21:27:54.553Z,99146.75
2023-03-31T21:30:21.453Z,99144.16
2023-03-31T21:32:48.257Z,99154.84
2023-03-31T21:35:14.922Z,99151.38
2023-03-31T21:37:41.713Z,99146.59
2023-03-31T21:40:09.094Z,99152.03
2023-03-31T21:42:36.319Z,99152.13
2023-03-31T21:45:02.871Z,99154.97
2023-03-31T21:47:29.474Z,99154.16
2023-03-31T21:49:56.059Z,99153.22
2023-03-31T21:52:22.628Z,99155.25
2023-03-31T21:54:49.166Z,99161.34
2023-03-31T21:57:15.843Z,99154.97
2023-03-31T21:59:42.460Z,99156.06
2023-03-31T22:02:09.186Z,99152.38
2023-03-31T22:04:35.908Z,99151.75
2023-03-31T22:07:02.455Z,99156.25
2023-03-31T22:09:29.172Z,99153.66
2023-03-31T22:11:55.726Z,99154.56
2023-03-31T22:14:22.255Z,99153.38
2023-03-31T22:16:48.809Z,99158.00
2023-03-31T22:19:15.768Z,99157.09
2023-03-31T22:21:43.877Z,99150.63
2023-03-31T22:24:11.864Z,99151.38
2023-03-31T22:26:38.409Z,99152.44
2023-03-31T22:29:04.966Z,99148.03
2023-03-31T22:31:32.011Z,99157.00
2023-03-31T22:33:58.846Z,99160.59
2023-03-31T22:36:25.520Z,99161.69
2023-03-31T22:38:52.119Z,99160.72
2023-03-31T22:41:18.748Z,99159.00
2023-03-31T22:43:46.380Z,99159.13
2023-03-31T22:46:13.652Z,99165.41
2023-03-31T22:48:40.538Z,99158.31
2023-03-31T22:51:08.493Z,99158.31
2023-03-31T22:53:35.045Z,99157.38
2023-03-31T22:56:11.876Z,99169.97
2023-03-31T22:58:38.538Z,99162.66
2023-03-31T23:01:06.994Z,99169.97
2023-03-31T23:03:33.709Z,99162.72
2023-03-31T23:06:05.231Z,99176.19
2023-03-31T23:08:31.894Z,99168.22
2023-03-31T23:10:59.531Z,99167.47
2023-03-31T23:13:27.467Z,99164.72
2023-03-31T23:15:54.077Z,99159.31
2023-03-31T23:18:21.981Z,99166.53
2023-03-31T23:20:48.761Z,99166.47
2023-03-31T23:23:16.354Z,99167.47
2023-03-31T23:25:42.937Z,99163.91
2023-03-31T23:28:09.511Z,99174.63
2023-03-31T23:30:36.174Z,99165.81
2023-03-31T23:33:02.728Z,99170.06
2023-03-31T23:35:29.425Z,99171.94
2023-03-31T23:37:56.012Z,99172.88
2023-03-31T23:40:22.567Z,99173.84
2023-03-31T23:42:49.120Z,99165.00
2023-03-31T23:45:15.772Z,99165.09
2023-03-31T23:47:42.599Z,99172.09
2023-03-31T23:50:09.652Z,99167.47
2023-03-31T23:52:36.297Z,99165.91
2023-03-31T23:55:04.353Z,99174.88
2023-03-31T23:57:31.183Z,99168.69
2023-03-31T23:59:57.802Z,99168.59
